Time;durP1;ratioP1;P1;durP2;ratioP2;P2;SDS_P1;SDS_P2;PMS_P1;PMS_P2;Temp;Humidity;BMP_temperature;BMP_pressure;BME280_temperature;BME280_humidity;BME280_pressure;Samples;Min_cycle;Max_cycle;Signal;HPM_P1;HPM_P2
2021/09/03 00:02:11;;;;;;;4.00;2.83;;;22.60;54.50;;;;;;4926989;29;20892;-68
2021/09/03 00:04:37;;;;;;;3.70;2.70;;;22.50;54.40;;;;;;4927243;29;20407;-68
2021/09/03 00:07:03;;;;;;;3.92;2.83;;;22.60;54.40;;;;;;4926044;29;20403;-67
2021/09/03 00:09:28;;;;;;;5.03;3.03;;;22.50;54.40;;;;;;4942022;29;20494;-68
2021/09/03 00:11:54;;;;;;;4.30;2.80;;;22.50;54.50;;;;;;4927386;29;20384;-68
2021/09/03 00:14:20;;;;;;;3.50;2.80;;;22.50;54.40;;;;;;4926789;29;20403;-68
2021/09/03 00:16:45;;;;;;;3.58;2.90;;;22.50;54.40;;;;;;4911628;29;20506;-67
2021/09/03 00:19:13;;;;;;;4.50;3.00;;;22.50;54.40;;;;;;4916665;29;20423;-68
2021/09/03 00:21:39;;;;;;;3.20;2.73;;;22.50;54.40;;;;;;4927034;29;20439;-68
2021/09/03 00:24:05;;;;;;;3.65;2.85;;;22.50;54.50;;;;;;4926906;29;20756;-68
2021/09/03 00:26:30;;;;;;;3.50;2.80;;;22.50;54.50;;;;;;4926953;29;20451;-68
2021/09/03 00:28:56;;;;;;;3.50;2.70;;;22.50;54.50;;;;;;4927188;29;20730;-68
2021/09/03 00:31:22;;;;;;;3.27;2.80;;;22.50;54.50;;;;;;4926965;29;20408;-68
2021/09/03 00:33:47;;;;;;;3.38;2.72;;;22.50;54.60;;;;;;4926799;29;20396;-68
2021/09/03 00:36:13;;;;;;;3.80;3.03;;;22.40;54.40;;;;;;4926533;29;20884;-67
2021/09/03 00:38:39;;;;;;;3.55;2.88;;;22.50;54.40;;;;;;4926927;29;20396;-68
2021/09/03 00:41:04;;;;;;;3.33;2.50;;;22.40;54.30;;;;;;4926780;29;20487;-67
2021/09/03 00:43:31;;;;;;;3.45;2.80;;;22.50;54.10;;;;;;4926880;29;20423;-68
2021/09/03 00:45:57;;;;;;;3.70;2.72;;;22.40;54.00;;;;;;4926848;29;20462;-68
2021/09/03 00:48:23;;;;;;;3.42;2.72;;;22.40;54.00;;;;;;4926207;29;20434;-68
2021/09/03 00:50:52;;;;;;;3.28;2.70;;;22.40;54.10;;;;;;4926973;29;20549;-68
2021/09/03 00:53:18;;;;;;;3.30;2.90;;;22.40;54.00;;;;;;4941291;29;20423;-68
2021/09/03 00:55:44;;;;;;;3.10;2.50;;;22.40;54.20;;;;;;4925125;29;20440;-69
2021/09/03 00:58:10;;;;;;;3.33;2.85;;;22.40;54.10;;;;;;4926165;29;20815;-68
2021/09/03 01:00:37;;;;;;;3.43;2.70;;;22.40;54.20;;;;;;4911357;29;20400;-68
2021/09/03 01:03:02;;;;;;;3.58;2.75;;;22.40;54.10;;;;;;4924939;29;20466;-67
2021/09/03 01:05:28;;;;;;;3.30;2.77;;;22.40;54.00;;;;;;4926615;29;20412;-68
2021/09/03 01:07:56;;;;;;;3.78;2.75;;;22.40;54.60;;;;;;4926274;29;20391;-68
2021/09/03 01:10:23;;;;;;;3.57;2.77;;;22.30;54.00;;;;;;4924641;29;20436;-68
2021/09/03 01:12:50;;;;;;;3.60;2.78;;;22.40;54.20;;;;;;4926419;29;20543;-68
2021/09/03 01:15:17;;;;;;;3.13;2.50;;;22.40;54.20;;;;;;4917309;29;20462;-68
2021/09/03 01:17:43;;;;;;;2.90;2.40;;;22.30;54.10;;;;;;4925945;29;20503;-68
2021/09/03 01:20:10;;;;;;;3.22;2.70;;;22.40;54.20;;;;;;4925767;29;20428;-68
2021/09/03 01:22:37;;;;;;;3.13;2.65;;;22.30;54.10;;;;;;4926042;29;20446;-68
2021/09/03 01:25:03;;;;;;;3.50;2.42;;;22.30;54.20;;;;;;4925745;29;20923;-67
2021/09/03 01:27:29;;;;;;;3.67;2.72;;;22.30;54.20;;;;;;4940678;29;20832;-67
2021/09/03 01:29:55;;;;;;;3.23;2.67;;;22.30;54.00;;;;;;4924007;29;20469;-67
2021/09/03 01:32:20;;;;;;;3.00;2.50;;;22.30;54.20;;;;;;4925593;29;20399;-68
2021/09/03 01:34:46;;;;;;;3.70;2.73;;;22.30;54.10;;;;;;4925825;29;20956;-67
2021/09/03 01:37:12;;;;;;;3.40;2.50;;;22.30;54.10;;;;;;4926022;29;20402;-68
2021/09/03 01:39:37;;;;;;;3.60;2.77;;;22.30;54.00;;;;;;4925882;29;20408;-68
2021/09/03 01:42:04;;;;;;;3.47;2.50;;;22.30;54.10;;;;;;4925903;29;20633;-68
2021/09/03 01:44:29;;;;;;;3.28;2.58;;;22.30;53.90;;;;;;4925278;29;20399;-67
2021/09/03 01:46:55;;;;;;;3.20;2.40;;;22.30;53.90;;;;;;4925797;29;20399;-67
2021/09/03 01:49:21;;;;;;;3.25;2.55;;;22.30;53.90;;;;;;4925850;29;20542;-67
2021/09/03 01:51:47;;;;;;;3.10;2.60;;;22.30;53.80;;;;;;4939823;28;20494;-68
2021/09/03 01:54:13;;;;;;;3.10;2.47;;;22.20;53.70;;;;;;4925366;29;20435;-68
2021/09/03 01:56:38;;;;;;;3.20;2.43;;;22.20;53.50;;;;;;4925586;29;20411;-68
2021/09/03 01:59:04;;;;;;;3.03;2.47;;;22.20;53.60;;;;;;4925623;29;20431;-68
2021/09/03 02:01:30;;;;;;;3.00;2.50;;;22.20;53.70;;;;;;4925363;29;20489;-68
2021/09/03 02:03:56;;;;;;;3.40;2.70;;;22.20;53.70;;;;;;4925566;29;20400;-68
2021/09/03 02:06:21;;;;;;;3.03;2.38;;;22.20;53.60;;;;;;4925231;29;20761;-68
2021/09/03 02:08:47;;;;;;;3.40;2.73;;;22.20;53.60;;;;;;4925681;29;20419;-67
2021/09/03 02:11:13;;;;;;;2.85;2.28;;;22.20;53.70;;;;;;4925436;29;20431;-68
2021/09/03 02:13:39;;;;;;;3.07;2.57;;;22.20;53.40;;;;;;4923349;29;21017;-67
2021/09/03 02:16:05;;;;;;;3.20;2.60;;;22.20;53.90;;;;;;4923826;29;20415;-68
2021/09/03 02:18:31;;;;;;;2.90;2.40;;;22.20;53.70;;;;;;4924907;29;20486;-68
2021/09/03 02:20:56;;;;;;;3.37;2.47;;;22.20;53.40;;;;;;4924016;29;20395;-68
2021/09/03 02:23:22;;;;;;;3.58;2.30;;;22.20;53.70;;;;;;4925077;29;20406;-68
2021/09/03 02:25:48;;;;;;;3.35;2.78;;;22.20;53.70;;;;;;4924036;29;20407;-68
2021/09/03 02:28:15;;;;;;;2.67;2.30;;;22.20;53.60;;;;;;4924759;29;20749;-68
2021/09/03 02:30:41;;;;;;;3.13;2.40;;;22.20;53.50;;;;;;4925178;29;20514;-67
2021/09/03 02:33:07;;;;;;;2.80;2.20;;;22.10;53.60;;;;;;4925163;29;20396;-68
2021/09/03 02:35:32;;;;;;;3.70;2.55;;;22.10;53.50;;;;;;4925160;29;20407;-67
2021/09/03 02:37:58;;;;;;;3.07;2.43;;;22.10;53.40;;;;;;4925119;29;20479;-68
2021/09/03 02:40:27;;;;;;;2.90;2.40;;;22.10;53.40;;;;;;4923207;29;20896;-68
2021/09/03 02:42:53;;;;;;;3.00;2.30;;;22.10;53.30;;;;;;4923669;29;20391;-68
2021/09/03 02:45:19;;;;;;;3.00;2.25;;;22.10;53.30;;;;;;4925227;29;20455;-68
2021/09/03 02:47:45;;;;;;;3.08;2.40;;;22.10;53.40;;;;;;4925169;29;20395;-68
2021/09/03 02:50:11;;;;;;;2.70;2.20;;;22.10;53.50;;;;;;4933273;29;20490;-68
2021/09/03 02:52:37;;;;;;;3.28;2.50;;;22.10;53.20;;;;;;4924903;29;20391;-67
2021/09/03 02:55:04;;;;;;;2.80;2.30;;;22.10;53.40;;;;;;4925035;29;20908;-68
2021/09/03 02:57:29;;;;;;;3.00;2.30;;;22.10;53.30;;;;;;4925074;29;20406;-67
2021/09/03 02:59:55;;;;;;;2.90;2.30;;;22.10;53.40;;;;;;4924919;29;20396;-68
2021/09/03 03:02:21;;;;;;;2.90;2.20;;;22.10;53.20;;;;;;4924592;29;20403;-67
2021/09/03 03:04:47;;;;;;;2.80;2.20;;;22.00;53.40;;;;;;4927449;29;20400;-67
2021/09/03 03:07:12;;;;;;;4.68;2.50;;;22.00;53.90;;;;;;4928727;29;20399;-68
2021/09/03 03:09:38;;;;;;;5.07;2.47;;;22.10;54.00;;;;;;4928272;29;20912;-67
2021/09/03 03:12:04;;;;;;;3.00;2.10;;;22.00;54.00;;;;;;4928616;29;20411;-68
2021/09/03 03:14:33;;;;;;;3.30;2.17;;;22.10;54.80;;;;;;4928079;29;20873;-68
2021/09/03 03:17:01;;;;;;;2.97;2.20;;;22.10;54.80;;;;;;4928240;29;20423;-67
2021/09/03 03:19:27;;;;;;;3.45;2.20;;;22.20;54.20;;;;;;4929353;29;20442;-68
2021/09/03 03:21:54;;;;;;;4.15;2.50;;;22.10;55.10;;;;;;4928458;29;20406;-68
2021/09/03 03:24:20;;;;;;;3.83;2.17;;;22.20;55.00;;;;;;4924800;29;20444;-68
2021/09/03 03:26:46;;;;;;;4.37;2.50;;;22.20;54.90;;;;;;4928452;29;20478;-68
2021/09/03 03:29:12;;;;;;;2.72;2.30;;;22.20;55.00;;;;;;4928285;29;20459;-69
2021/09/03 03:31:38;;;;;;;2.88;2.10;;;22.30;55.00;;;;;;4927984;29;20407;-69
2021/09/03 03:34:05;;;;;;;5.22;2.67;;;22.30;55.20;;;;;;4927813;29;20406;-69
2021/09/03 03:36:30;;;;;;;4.43;2.40;;;22.30;55.20;;;;;;4927474;29;20536;-69
2021/09/03 03:38:56;;;;;;;3.80;2.42;;;22.30;55.10;;;;;;4927783;29;20904;-69
2021/09/03 03:41:22;;;;;;;3.53;2.30;;;22.30;55.40;;;;;;4926673;29;20396;-69
2021/09/03 03:43:48;;;;;;;3.13;2.20;;;22.30;55.10;;;;;;4926529;29;20863;-68
2021/09/03 03:46:14;;;;;;;3.40;2.30;;;22.40;55.10;;;;;;4928556;29;20418;-69
2021/09/03 03:48:39;;;;;;;4.47;2.60;;;22.40;55.40;;;;;;4927905;29;20410;-69
2021/09/03 03:51:05;;;;;;;3.20;2.40;;;22.40;55.40;;;;;;4932157;29;20494;-69
2021/09/03 03:53:31;;;;;;;4.28;2.20;;;22.40;55.10;;;;;;4927330;29;20416;-69
2021/09/03 03:55:57;;;;;;;7.03;2.42;;;22.30;54.50;;;;;;4927787;29;20891;-69
2021/09/03 03:58:23;;;;;;;3.78;2.20;;;22.30;54.90;;;;;;4927135;29;20407;-69
2021/09/03 04:00:49;;;;;;;3.73;2.30;;;22.30;54.70;;;;;;4927400;29;20887;-68
2021/09/03 04:03:14;;;;;;;3.17;2.08;;;22.30;54.70;;;;;;4927619;29;20400;-69
2021/09/03 04:05:40;;;;;;;4.67;2.30;;;22.30;54.70;;;;;;4929384;29;20412;-68
2021/09/03 04:08:06;;;;;;;3.20;2.22;;;22.30;54.20;;;;;;4927566;29;20482;-69
2021/09/03 04:10:33;;;;;;;3.35;2.35;;;22.30;54.20;;;;;;4914524;29;20436;-68
2021/09/03 04:12:58;;;;;;;2.97;2.20;;;22.20;54.40;;;;;;4927292;29;20408;-69
2021/09/03 04:15:24;;;;;;;4.93;2.25;;;22.20;54.10;;;;;;4926766;29;20404;-68
2021/09/03 04:17:50;;;;;;;4.10;2.27;;;22.20;54.20;;;;;;4927153;29;20451;-67
2021/09/03 04:20:16;;;;;;;8.60;2.45;;;22.20;54.20;;;;;;4927042;29;20412;-66
2021/09/03 04:22:42;;;;;;;5.03;2.10;;;22.20;53.80;;;;;;4926918;29;20427;-67
2021/09/03 04:25:08;;;;;;;3.10;2.00;;;22.20;53.80;;;;;;4927209;29;20407;-68
2021/09/03 04:27:35;;;;;;;2.70;2.00;;;22.20;53.70;;;;;;4926840;29;20404;-67
2021/09/03 04:30:02;;;;;;;4.20;2.20;;;22.10;53.50;;;;;;4927230;29;20439;-67
2021/09/03 04:32:27;;;;;;;4.55;2.40;;;22.10;53.40;;;;;;4926484;29;20434;-67
2021/09/03 04:34:53;;;;;;;2.88;2.13;;;22.10;53.30;;;;;;4927006;29;20403;-67
2021/09/03 04:37:19;;;;;;;3.00;2.20;;;22.10;53.40;;;;;;4927026;29;20489;-68
2021/09/03 04:39:44;;;;;;;2.92;2.08;;;22.10;53.40;;;;;;4926773;29;20865;-66
2021/09/03 04:42:10;;;;;;;3.23;2.17;;;22.10;53.20;;;;;;4927236;29;20423;-67
2021/09/03 04:44:36;;;;;;;3.72;2.30;;;22.10;53.20;;;;;;4926204;29;20519;-68
2021/09/03 04:47:02;;;;;;;3.10;2.30;;;22.10;53.20;;;;;;4926582;29;20403;-67
2021/09/03 04:49:27;;;;;;;2.72;2.00;;;22.10;53.30;;;;;;4926563;29;20816;-68
2021/09/03 04:51:53;;;;;;;4.40;2.30;;;22.10;52.90;;;;;;4926636;29;20546;-68
2021/09/03 04:54:18;;;;;;;3.03;2.20;;;22.10;53.10;;;;;;4926392;29;20452;-66
2021/09/03 04:56:44;;;;;;;2.83;2.00;;;22.10;53.20;;;;;;4926591;29;20776;-67
2021/09/03 04:59:10;;;;;;;2.50;1.80;;;22.10;52.80;;;;;;4926591;29;20431;-67
2021/09/03 05:01:35;;;;;;;2.70;2.03;;;22.00;53.30;;;;;;4926335;29;20454;-66
2021/09/03 05:04:01;;;;;;;2.75;2.10;;;22.00;53.90;;;;;;4926536;29;20455;-67
2021/09/03 05:06:27;;;;;;;2.73;2.10;;;22.10;53.30;;;;;;4926030;29;20503;-67
2021/09/03 05:08:52;;;;;;;3.20;2.00;;;22.00;53.20;;;;;;4926528;29;20396;-68
2021/09/03 05:11:18;;;;;;;3.37;2.20;;;22.00;53.30;;;;;;4926164;29;20435;-66
2021/09/03 05:13:43;;;;;;;2.88;2.05;;;22.00;53.30;;;;;;4926411;29;20490;-68
2021/09/03 05:16:09;;;;;;;2.90;2.30;;;22.00;53.10;;;;;;4925938;29;20797;-68
2021/09/03 05:18:35;;;;;;;2.90;2.03;;;22.00;53.30;;;;;;4926256;29;20398;-68
2021/09/03 05:21:01;;;;;;;2.70;1.97;;;22.00;53.20;;;;;;4926063;29;20405;-68
2021/09/03 05:23:27;;;;;;;2.60;2.10;;;22.00;53.30;;;;;;4926205;29;20392;-67
2021/09/03 05:25:53;;;;;;;2.70;2.00;;;22.00;53.30;;;;;;4925612;29;20898;-68
2021/09/03 05:28:18;;;;;;;2.90;2.10;;;22.00;53.10;;;;;;4925827;29;20395;-66
2021/09/03 05:30:44;;;;;;;2.93;2.07;;;22.00;53.00;;;;;;4923831;29;20545;-67
2021/09/03 05:33:10;;;;;;;3.42;2.05;;;22.00;53.10;;;;;;4925919;29;21030;-68
2021/09/03 05:35:35;;;;;;;3.17;2.10;;;22.20;53.40;;;;;;4926170;29;20403;-67
2021/09/03 05:38:04;;;;;;;2.70;2.20;;;22.00;53.20;;;;;;4925411;29;20511;-67
2021/09/03 05:40:31;;;;;;;3.33;2.10;;;22.00;53.40;;;;;;4925115;29;20482;-66
2021/09/03 05:42:57;;;;;;;2.55;2.10;;;22.00;53.30;;;;;;4925924;29;21193;-69
2021/09/03 05:45:22;;;;;;;3.00;2.10;;;22.00;53.60;;;;;;4925899;29;20400;-67
2021/09/03 05:47:48;;;;;;;2.53;2.13;;;22.00;53.50;;;;;;4925873;29;20432;-68
2021/09/03 05:50:15;;;;;;;3.00;2.13;;;22.00;53.50;;;;;;4925576;29;20795;-67
2021/09/03 05:52:41;;;;;;;3.47;2.00;;;21.90;53.40;;;;;;4925231;29;20760;-68
2021/09/03 05:55:07;;;;;;;2.83;1.98;;;21.90;53.50;;;;;;4925347;29;20832;-68
2021/09/03 05:57:32;;;;;;;2.70;2.20;;;21.90;53.40;;;;;;4925539;29;21569;-68
2021/09/03 05:59:59;;;;;;;2.80;2.20;;;21.90;53.50;;;;;;4925766;29;20408;-68
2021/09/03 06:02:25;;;;;;;2.50;2.08;;;21.90;53.60;;;;;;4925036;29;20399;-67
2021/09/03 06:04:51;;;;;;;2.88;2.15;;;21.90;53.50;;;;;;4925730;29;20407;-67
2021/09/03 06:07:17;;;;;;;2.50;2.00;;;21.90;53.60;;;;;;4925443;29;20396;-67
2021/09/03 06:09:43;;;;;;;2.57;2.10;;;22.00;53.70;;;;;;4925560;29;20419;-66
2021/09/03 06:12:08;;;;;;;2.88;2.05;;;21.90;53.70;;;;;;4925349;29;20495;-67
2021/09/03 06:14:34;;;;;;;2.95;2.20;;;21.90;54.30;;;;;;4924971;29;20515;-67
2021/09/03 06:17:00;;;;;;;2.70;2.10;;;21.90;53.80;;;;;;4925283;29;20522;-67
2021/09/03 06:19:26;;;;;;;3.20;2.20;;;21.90;53.80;;;;;;4925255;29;20462;-66
2021/09/03 06:21:51;;;;;;;3.00;2.10;;;21.90;53.90;;;;;;4923996;29;20426;-68
2021/09/03 06:24:30;;;;;;;2.60;2.00;;;21.90;54.00;;;;;;4925128;29;20399;-68
2021/09/03 06:26:58;;;;;;;3.07;2.20;;;21.90;54.10;;;;;;4925595;29;20421;-67
2021/09/03 06:29:37;;;;;;;2.92;2.30;;;21.90;54.10;;;;;;4925301;29;20415;-67
2021/09/03 06:32:13;;;;;;;2.92;2.20;;;22.00;54.20;;;;;;4925295;29;20503;-67
2021/09/03 06:34:48;;;;;;;2.78;2.08;;;21.90;54.10;;;;;;4923527;29;20864;-71
2021/09/03 06:37:14;;;;;;;2.83;2.20;;;21.90;54.10;;;;;;4925256;29;20988;-67
2021/09/03 06:39:40;;;;;;;2.55;1.92;;;21.90;54.10;;;;;;4928834;29;20395;-68
2021/09/03 06:42:08;;;;;;;3.20;2.22;;;21.90;54.20;;;;;;4928921;29;20403;-68
2021/09/03 06:44:34;;;;;;;2.70;2.10;;;22.00;54.20;;;;;;4928519;29;20499;-67
2021/09/03 06:47:00;;;;;;;3.20;2.30;;;22.00;54.40;;;;;;4929552;29;20438;-68
2021/09/03 06:49:26;;;;;;;2.75;2.20;;;22.00;54.20;;;;;;4928721;29;20874;-68
2021/09/03 06:51:52;;;;;;;2.67;2.10;;;22.00;54.20;;;;;;4928941;29;20459;-67
2021/09/03 06:54:18;;;;;;;3.05;2.38;;;22.00;54.30;;;;;;4928843;29;20470;-67
2021/09/03 06:56:44;;;;;;;2.80;2.10;;;22.00;54.20;;;;;;4928534;29;20876;-67
2021/09/03 06:59:10;;;;;;;2.70;2.20;;;22.00;54.30;;;;;;4928764;29;20483;-68
2021/09/03 07:01:36;;;;;;;2.65;2.00;;;22.00;54.20;;;;;;4927006;29;20407;-67
2021/09/03 07:04:01;;;;;;;3.50;2.30;;;22.00;54.30;;;;;;4928493;29;20399;-67
2021/09/03 07:06:27;;;;;;;3.07;2.30;;;22.00;54.40;;;;;;4928391;29;20407;-67
2021/09/03 07:08:53;;;;;;;2.75;2.30;;;22.00;54.50;;;;;;4928500;29;20431;-68
2021/09/03 07:11:19;;;;;;;5.00;2.10;;;22.00;54.40;;;;;;4927762;29;20477;-68
2021/09/03 07:13:44;;;;;;;2.92;2.33;;;22.00;54.50;;;;;;4928256;29;20398;-67
2021/09/03 07:16:10;;;;;;;3.50;2.30;;;22.00;54.50;;;;;;4928246;29;20801;-68
2021/09/03 07:18:36;;;;;;;2.40;1.90;;;22.00;54.40;;;;;;4928114;29;20942;-66
2021/09/03 07:21:01;;;;;;;2.63;2.10;;;22.00;54.50;;;;;;4928450;29;21028;-68
2021/09/03 07:23:27;;;;;;;2.40;2.00;;;22.00;54.50;;;;;;4927845;29;20458;-67
2021/09/03 07:25:53;;;;;;;2.30;2.00;;;22.10;54.50;;;;;;4927840;29;20814;-68
2021/09/03 07:28:18;;;;;;;2.80;1.97;;;22.00;54.60;;;;;;4928205;29;20892;-66
2021/09/03 07:30:44;;;;;;;2.53;1.90;;;22.10;54.70;;;;;;4927534;29;20510;-67
2021/09/03 07:33:10;;;;;;;3.20;1.90;;;22.10;54.70;;;;;;4927943;29;20399;-66
2021/09/03 07:35:36;;;;;;;2.20;1.80;;;22.10;54.70;;;;;;4928237;29;20406;-68
2021/09/03 07:38:02;;;;;;;2.50;1.77;;;22.10;54.80;;;;;;4927903;29;20392;-67
2021/09/03 07:40:28;;;;;;;2.72;2.05;;;22.10;54.80;;;;;;4928000;29;20864;-67
2021/09/03 07:42:56;;;;;;;2.27;1.73;;;22.10;54.80;;;;;;4927848;29;20455;-67
2021/09/03 07:45:22;;;;;;;2.38;1.98;;;22.10;55.40;;;;;;4927881;29;20438;-67
2021/09/03 07:47:48;;;;;;;2.57;1.97;;;22.10;54.90;;;;;;4928117;29;20888;-66
2021/09/03 07:50:17;;;;;;;2.40;1.88;;;22.10;54.80;;;;;;4926910;29;20423;-67
2021/09/03 07:52:44;;;;;;;2.55;2.10;;;22.10;54.90;;;;;;4925760;29;21211;-67
2021/09/03 07:55:09;;;;;;;2.90;2.10;;;22.10;54.80;;;;;;4927889;29;20410;-67
2021/09/03 07:57:35;;;;;;;3.17;2.10;;;22.10;54.80;;;;;;4927554;29;20392;-68
2021/09/03 08:00:01;;;;;;;2.97;2.43;;;22.10;55.00;;;;;;4927826;29;20412;-67
2021/09/03 08:02:26;;;;;;;3.05;2.25;;;22.10;55.00;;;;;;4927703;29;20396;-67
2021/09/03 08:04:53;;;;;;;3.33;2.27;;;22.10;55.10;;;;;;4927394;29;20435;-67
2021/09/03 08:07:18;;;;;;;3.00;2.15;;;22.10;55.10;;;;;;4927107;29;20392;-67
2021/09/03 08:09:44;;;;;;;3.60;2.50;;;22.10;55.10;;;;;;4926667;29;21168;-67
2021/09/03 08:12:11;;;;;;;2.83;2.00;;;22.10;55.70;;;;;;4926733;29;20423;-66
2021/09/03 08:14:37;;;;;;;3.75;2.33;;;22.10;55.00;;;;;;4925483;29;20399;-67
2021/09/03 08:17:03;;;;;;;2.97;2.13;;;22.10;55.00;;;;;;4926687;29;20820;-67
2021/09/03 08:19:29;;;;;;;4.00;2.40;;;22.10;54.80;;;;;;4925972;29;20446;-67
2021/09/03 08:21:55;;;;;;;3.53;2.30;;;22.10;54.90;;;;;;4926733;29;20400;-67
2021/09/03 08:24:21;;;;;;;3.10;2.30;;;22.10;54.90;;;;;;4926223;29;20453;-68
2021/09/03 08:26:47;;;;;;;3.13;2.40;;;22.10;54.80;;;;;;4926191;29;20990;-68
2021/09/03 08:29:13;;;;;;;4.18;2.45;;;22.20;55.00;;;;;;4926147;29;20391;-68
2021/09/03 08:31:38;;;;;;;2.78;2.17;;;22.20;54.90;;;;;;4926218;29;20433;-68
2021/09/03 08:34:06;;;;;;;2.93;2.30;;;22.20;54.90;;;;;;4925882;29;20392;-67
2021/09/03 08:36:32;;;;;;;3.00;2.20;;;22.20;55.00;;;;;;4926110;29;20470;-67
2021/09/03 08:38:58;;;;;;;2.72;2.00;;;22.20;54.90;;;;;;4925456;29;20402;-68
2021/09/03 08:41:24;;;;;;;3.33;2.20;;;22.20;55.00;;;;;;4925948;29;20406;-67
2021/09/03 08:43:56;;;;;;;3.20;2.17;;;22.20;54.90;;;;;;4924605;29;20395;-67
2021/09/03 08:46:23;;;;;;;3.05;2.50;;;22.20;54.90;;;;;;4925758;29;20487;-67
2021/09/03 08:48:49;;;;;;;2.67;2.15;;;22.20;55.00;;;;;;4925135;29;20898;-67
2021/09/03 08:51:15;;;;;;;2.97;2.22;;;22.20;54.90;;;;;;4925527;29;21477;-66
2021/09/03 08:53:41;;;;;;;3.40;2.40;;;22.20;54.90;;;;;;4926309;29;20490;-68
2021/09/03 08:56:07;;;;;;;2.70;2.10;;;22.20;54.90;;;;;;4925915;29;20395;-67
2021/09/03 08:58:34;;;;;;;3.03;2.30;;;22.30;54.90;;;;;;4925316;29;20404;-66
2021/09/03 09:01:11;;;;;;;3.25;2.42;;;22.30;54.80;;;;;;4924480;29;20408;-68
2021/09/03 09:03:42;;;;;;;2.80;2.15;;;22.30;54.80;;;;;;4925553;29;21333;-67
2021/09/03 09:06:09;;;;;;;3.53;2.40;;;22.30;54.80;;;;;;4925032;29;20411;-66
2021/09/03 09:08:37;;;;;;;3.38;2.50;;;22.30;54.80;;;;;;4925498;29;20403;-67
2021/09/03 09:11:13;;;;;;;3.30;2.40;;;22.20;54.80;;;;;;4924957;29;20428;-68
2021/09/03 09:13:43;;;;;;;3.08;2.17;;;22.30;54.80;;;;;;4925687;29;20904;-68
2021/09/03 09:16:11;;;;;;;3.17;2.20;;;22.30;54.80;;;;;;4924550;29;20446;-68
2021/09/03 09:18:40;;;;;;;3.13;2.53;;;22.30;54.90;;;;;;4925074;29;20399;-67
2021/09/03 09:21:19;;;;;;;3.40;2.45;;;22.30;54.80;;;;;;4924597;29;20403;-68
2021/09/03 09:23:52;;;;;;;3.38;2.65;;;22.30;54.80;;;;;;4925457;29;20403;-67
2021/09/03 09:26:20;;;;;;;3.33;2.60;;;22.30;54.90;;;;;;4924671;29;20427;-67
2021/09/03 09:28:50;;;;;;;3.40;2.65;;;22.30;54.90;;;;;;4924998;29;20395;-67
2021/09/03 09:31:35;;;;;;;3.40;2.58;;;22.30;54.90;;;;;;4924794;29;20435;-66
2021/09/03 09:34:13;;;;;;;3.15;2.60;;;22.30;54.80;;;;;;4925960;29;21704;-67
2021/09/03 09:36:40;;;;;;;3.67;2.43;;;22.30;55.00;;;;;;4939003;28;20862;-66
2021/09/03 09:39:06;;;;;;;4.38;2.70;;;22.30;55.00;;;;;;4925439;29;20395;-67
2021/09/03 09:41:32;;;;;;;3.83;2.90;;;22.40;55.10;;;;;;4925558;29;20395;-67
2021/09/03 09:43:58;;;;;;;3.00;2.65;;;22.30;55.10;;;;;;4925149;29;20412;-68
2021/09/03 09:46:26;;;;;;;3.10;2.65;;;22.30;55.00;;;;;;4925272;29;20392;-67
2021/09/03 09:48:56;;;;;;;3.13;2.50;;;22.40;55.30;;;;;;4925262;29;20404;-69
2021/09/03 09:51:38;;;;;;;3.30;2.70;;;22.30;55.10;;;;;;4924961;29;20522;-68
2021/09/03 09:54:16;;;;;;;4.10;2.88;;;22.40;55.10;;;;;;4924504;29;20404;-67
2021/09/03 09:56:43;;;;;;;3.33;2.60;;;22.40;55.10;;;;;;4924120;29;20391;-66
2021/09/03 09:59:11;;;;;;;3.42;2.50;;;22.40;55.20;;;;;;4924607;29;20427;-67
2021/09/03 10:01:39;;;;;;;3.38;2.50;;;22.40;55.20;;;;;;4939163;28;20412;-67
2021/09/03 10:04:11;;;;;;;3.40;2.80;;;22.40;55.20;;;;;;4924130;29;20400;-66
2021/09/03 10:06:38;;;;;;;2.83;2.42;;;22.40;55.20;;;;;;4924450;29;20399;-68
2021/09/03 10:09:08;;;;;;;3.38;2.58;;;22.40;55.80;;;;;;4924740;29;20408;-67
2021/09/03 10:11:38;;;;;;;3.70;2.78;;;22.40;55.20;;;;;;4924597;29;20435;-68
2021/09/03 10:14:06;;;;;;;3.80;2.88;;;22.40;55.10;;;;;;4923691;29;20403;-66
2021/09/03 10:16:32;;;;;;;3.35;2.65;;;22.40;55.10;;;;;;4924616;29;20411;-67
2021/09/03 10:19:00;;;;;;;3.38;2.65;;;22.40;55.00;;;;;;4923532;29;20391;-67
2021/09/03 10:21:29;;;;;;;3.50;2.80;;;22.40;55.00;;;;;;4924174;29;20426;-67
2021/09/03 10:24:05;;;;;;;3.83;2.83;;;22.40;55.00;;;;;;4921895;29;20418;-68
2021/09/03 10:26:39;;;;;;;3.72;2.88;;;22.40;55.60;;;;;;4924205;29;20482;-67
2021/09/03 10:29:24;;;;;;;3.10;2.60;;;22.50;55.00;;;;;;4924440;29;20428;-69
2021/09/03 10:32:07;;;;;;;3.40;2.58;;;22.40;54.90;;;;;;4923061;29;20931;-69
2021/09/03 10:37:13;;;;;;;3.60;3.00;;;22.40;55.00;;;;;;4923722;29;20423;-68
2021/09/03 10:39:46;;;;;;;3.80;3.00;;;22.40;55.00;;;;;;4924699;29;20643;-68
2021/09/03 10:42:31;;;;;;;3.22;2.67;;;22.40;55.00;;;;;;4923991;29;20399;-66
2021/09/03 10:45:03;;;;;;;3.40;2.90;;;22.50;55.10;;;;;;4923417;29;20423;-68
2021/09/03 10:47:47;;;;;;;3.20;2.65;;;22.50;55.10;;;;;;4924427;29;20403;-68
2021/09/03 10:50:15;;;;;;;3.40;2.70;;;22.50;55.10;;;;;;4923842;29;20419;-69
2021/09/03 10:53:07;;;;;;;3.15;2.85;;;22.50;55.00;;;;;;4923217;29;20411;-67
2021/09/03 10:55:48;;;;;;;3.50;2.78;;;22.50;55.00;;;;;;4923306;29;20391;-67
2021/09/03 10:58:41;;;;;;;3.72;2.70;;;22.50;55.00;;;;;;4923955;29;20446;-68
2021/09/03 11:01:10;;;;;;;3.40;2.70;;;22.50;55.10;;;;;;4923886;29;21074;-66
2021/09/03 11:03:50;;;;;;;4.10;2.95;;;22.50;55.00;;;;;;4924768;29;20388;-67
2021/09/03 11:06:35;;;;;;;3.38;2.80;;;22.50;55.00;;;;;;4924005;29;20968;-67
2021/09/03 11:09:16;;;;;;;3.42;2.53;;;22.50;55.00;;;;;;4923593;28;20400;-68
2021/09/03 11:11:48;;;;;;;3.45;2.70;;;22.50;55.00;;;;;;4923991;29;20943;-68
2021/09/03 11:14:19;;;;;;;3.20;2.70;;;22.50;55.00;;;;;;4923468;29;20407;-68
2021/09/03 11:16:57;;;;;;;3.55;2.80;;;22.50;54.90;;;;;;4923603;29;20427;-68
2021/09/03 11:19:28;;;;;;;3.53;2.88;;;22.50;55.00;;;;;;4923301;29;20399;-66
2021/09/03 11:22:06;;;;;;;3.20;2.50;;;22.50;55.00;;;;;;4924127;29;20439;-67
2021/09/03 11:24:36;;;;;;;4.05;2.90;;;22.50;55.00;;;;;;4922712;29;20455;-68
2021/09/03 11:27:06;;;;;;;3.28;2.65;;;22.50;55.00;;;;;;4926799;29;20427;-66
2021/09/03 11:29:38;;;;;;;3.85;2.80;;;22.50;54.80;;;;;;4927095;29;20921;-68
2021/09/03 11:32:09;;;;;;;5.57;3.10;;;22.50;55.00;;;;;;4928069;29;20403;-68
2021/09/03 11:34:57;;;;;;;4.57;3.20;;;22.50;55.50;;;;;;4927169;29;20431;-66
2021/09/03 11:37:34;;;;;;;6.45;3.13;;;22.50;55.40;;;;;;4912486;29;20415;-68
2021/09/03 11:40:31;;;;;;;4.57;3.13;;;22.50;55.60;;;;;;4926463;29;20403;-68
2021/09/03 11:43:05;;;;;;;4.43;3.10;;;22.60;55.60;;;;;;4926814;29;20461;-67
2021/09/03 11:45:38;;;;;;;4.63;3.30;;;22.60;56.10;;;;;;4927542;29;20767;-67
2021/09/03 11:48:09;;;;;;;5.68;3.28;;;22.70;56.00;;;;;;4927216;29;20407;-68
2021/09/03 11:50:42;;;;;;;4.57;3.07;;;22.70;56.70;;;;;;4927479;29;20416;-69
2021/09/03 11:53:16;;;;;;;5.53;3.20;;;22.70;56.80;;;;;;4925988;29;20726;-66
2021/09/03 11:55:46;;;;;;;5.38;3.20;;;22.70;56.50;;;;;;4926645;29;20434;-67
2021/09/03 11:58:16;;;;;;;6.57;3.30;;;22.80;57.10;;;;;;4926345;29;20407;-67
2021/09/03 12:00:50;;;;;;;4.55;3.22;;;22.90;56.90;;;;;;4926550;29;20876;-67
2021/09/03 12:03:21;;;;;;;5.38;3.22;;;22.80;56.20;;;;;;4927032;29;20417;-67
2021/09/03 12:05:52;;;;;;;4.35;3.08;;;22.80;56.20;;;;;;4926797;29;20955;-67
2021/09/03 12:08:23;;;;;;;3.90;3.03;;;22.80;56.40;;;;;;4926604;29;20772;-68
2021/09/03 12:10:49;;;;;;;5.28;3.10;;;22.80;56.20;;;;;;4926113;29;20463;-68
2021/09/03 12:13:17;;;;;;;4.00;2.87;;;22.80;56.30;;;;;;4927875;29;20438;-67
2021/09/03 12:15:45;;;;;;;4.72;3.08;;;22.80;56.30;;;;;;4926195;29;20395;-69
2021/09/03 12:18:31;;;;;;;4.07;2.92;;;22.80;56.10;;;;;;4926500;29;20391;-66
2021/09/03 12:21:19;;;;;;;3.47;2.75;;;22.80;56.30;;;;;;4925844;29;20753;-69
2021/09/03 12:23:58;;;;;;;4.77;3.07;;;22.90;56.50;;;;;;4926385;29;20388;-68
2021/09/03 12:26:52;;;;;;;4.20;3.20;;;22.80;56.20;;;;;;4925889;29;20398;-67
2021/09/03 12:29:24;;;;;;;3.95;3.25;;;22.90;56.10;;;;;;4925517;29;20893;-68
2021/09/03 12:31:52;;;;;;;3.67;2.97;;;22.90;56.00;;;;;;4925594;29;20438;-68
2021/09/03 12:34:18;;;;;;;4.10;2.90;;;22.90;56.00;;;;;;4925776;29;20447;-68
2021/09/03 12:36:45;;;;;;;6.50;3.03;;;23.00;56.00;;;;;;4925761;28;20407;-67
2021/09/03 12:39:20;;;;;;;3.67;3.00;;;23.00;56.10;;;;;;4926091;29;20483;-69
2021/09/03 12:41:48;;;;;;;4.18;2.95;;;23.00;55.90;;;;;;4925452;29;20398;-67
2021/09/03 12:44:23;;;;;;;4.77;3.20;;;23.00;56.20;;;;;;4925704;29;20896;-68
2021/09/03 12:46:53;;;;;;;4.65;3.03;;;23.00;56.00;;;;;;4923558;29;20410;-68
2021/09/03 12:49:27;;;;;;;4.20;3.00;;;23.10;56.30;;;;;;4925185;29;20395;-68
2021/09/03 12:52:01;;;;;;;4.72;3.40;;;23.10;56.00;;;;;;4925400;29;20848;-66
2021/09/03 12:54:33;;;;;;;3.80;3.00;;;23.10;56.00;;;;;;4925162;29;20455;-68
2021/09/03 12:56:59;;;;;;;4.90;3.03;;;23.10;56.20;;;;;;4924569;29;20415;-66